createdAt,value
2022-11-14T00:02:38.372Z,2.73
2022-11-14T00:05:24.219Z,1.60
2022-11-14T00:08:21.706Z,3.43
2022-11-14T00:11:07.130Z,3.03
2022-11-14T00:13:52.536Z,1.57
2022-11-14T00:16:37.961Z,2.63
2022-11-14T00:19:23.216Z,3.23
2022-11-14T00:22:08.407Z,2.10
2022-11-14T00:24:54.197Z,2.47
2022-11-14T00:27:39.531Z,1.90
2022-11-14T00:30:25.616Z,1.83
2022-11-14T00:33:14.715Z,2.20
2022-11-14T00:36:03.535Z,2.07
2022-11-14T00:38:53.115Z,2.50
2022-11-14T00:41:38.932Z,4.50
2022-11-14T00:44:24.924Z,1.80
2022-11-14T00:47:10.207Z,1.87
2022-11-14T00:49:55.761Z,1.87
2022-11-14T00:52:41.322Z,4.47
2022-11-14T00:55:26.787Z,3.57
2022-11-14T00:58:12.541Z,4.50
2022-11-14T01:00:58.018Z,1.43
2022-11-14T01:03:43.436Z,2.27
2022-11-14T01:06:28.818Z,2.23
2022-11-14T01:09:14.084Z,2.17
2022-11-14T01:12:00.103Z,2.17
2022-11-14T01:14:45.611Z,2.27
2022-11-14T01:17:31.023Z,1.20
2022-11-14T01:20:16.866Z,2.00
2022-11-14T01:23:02.447Z,3.27
2022-11-14T01:25:47.691Z,4.53
2022-11-14T01:28:33.215Z,1.70
2022-11-14T01:31:21.723Z,0.70
2022-11-14T01:34:07.160Z,2.00
2022-11-14T01:37:12.652Z,1.30
2022-11-14T01:40:17.972Z,4.00
2022-11-14T01:43:51.134Z,0.93
2022-11-14T01:47:00.496Z,2.20
2022-11-14T01:50:10.107Z,1.97
2022-11-14T01:53:18.832Z,0.97
2022-11-14T01:56:27.539Z,1.77
2022-11-14T01:59:38.149Z,1.77
2022-11-14T02:02:45.649Z,2.03
2022-11-14T02:05:52.477Z,1.07
2022-11-14T02:08:58.964Z,2.23
2022-11-14T02:12:06.186Z,4.20
2022-11-14T02:15:15.867Z,2.67
2022-11-14T02:18:22.150Z,1.60
2022-11-14T02:21:27.547Z,3.80
2022-11-14T02:24:34.204Z,1.00
2022-11-14T02:27:39.438Z,1.17
2022-11-14T02:30:45.211Z,2.90
2022-11-14T02:33:50.467Z,1.03
2022-11-14T02:36:56.095Z,1.13
2022-11-14T02:40:01.167Z,1.37
2022-11-14T02:43:06.641Z,1.07
2022-11-14T02:46:11.775Z,2.07
2022-11-14T02:49:17.590Z,2.10
2022-11-14T02:52:23.030Z,0.70
2022-11-14T02:55:29.482Z,1.80
2022-11-14T02:58:34.936Z,1.17
2022-11-14T03:01:40.780Z,1.27
2022-11-14T03:04:46.366Z,1.67
2022-11-14T03:07:52.080Z,1.57
2022-11-14T03:10:57.449Z,0.80
2022-11-14T03:14:03.086Z,1.27
2022-11-14T03:17:08.479Z,0.87
2022-11-14T03:20:14.252Z,2.03
2022-11-14T03:23:19.807Z,1.53
2022-11-14T03:26:27.792Z,0.80
2022-11-14T03:29:33.550Z,0.60
2022-11-14T03:32:38.803Z,1.03
2022-11-14T03:35:44.361Z,1.90
2022-11-14T03:38:50.520Z,0.90
2022-11-14T03:41:55.944Z,1.53
2022-11-14T03:45:01.383Z,2.83
2022-11-14T03:48:06.691Z,1.50
2022-11-14T03:51:12.637Z,1.87
2022-11-14T03:54:17.929Z,2.50
2022-11-14T03:57:23.883Z,1.60
2022-11-14T04:00:30.122Z,2.10
2022-11-14T04:03:35.804Z,1.97
2022-11-14T04:06:41.403Z,1.00
2022-11-14T04:09:46.691Z,0.43
2022-11-14T04:12:52.449Z,1.23
2022-11-14T04:15:58.231Z,1.70
2022-11-14T04:19:03.431Z,1.27
2022-11-14T04:22:09.243Z,1.20
2022-11-14T04:25:14.210Z,2.63
2022-11-14T04:28:19.739Z,1.03
2022-11-14T04:31:25.518Z,2.57
2022-11-14T04:34:30.719Z,1.13
2022-11-14T04:37:36.408Z,3.73
2022-11-14T04:40:41.975Z,1.03
2022-11-14T04:43:50.774Z,1.20
2022-11-14T04:46:56.710Z,1.93
2022-11-14T04:50:02.033Z,2.33
2022-11-14T04:53:11.052Z,3.40
2022-11-14T04:56:16.442Z,1.53
2022-11-14T04:59:22.423Z,1.07
2022-11-14T05:02:27.908Z,0.67
2022-11-14T05:05:36.877Z,4.70
2022-11-14T05:08:44.869Z,5.03
2022-11-14T05:11:50.359Z,3.70
2022-11-14T05:14:55.852Z,5.17
2022-11-14T05:18:01.450Z,4.73
2022-11-14T05:21:06.704Z,6.40
2022-11-14T05:24:12.390Z,5.30
2022-11-14T05:27:18.974Z,2.43
2022-11-14T05:30:24.971Z,2.53
2022-11-14T05:33:30.423Z,1.03
2022-11-14T05:36:37.361Z,1.73
2022-11-14T05:39:43.010Z,3.30
2022-11-14T05:42:48.720Z,4.70
2022-11-14T05:45:54.063Z,3.73
2022-11-14T05:48:59.858Z,5.73
2022-11-14T05:52:05.516Z,3.37
2022-11-14T05:55:11.377Z,2.90
2022-11-14T05:58:20.341Z,2.53
2022-11-14T06:01:32.432Z,2.07
2022-11-14T06:04:38.021Z,1.90
2022-11-14T06:07:43.500Z,0.77
2022-11-14T06:10:49.954Z,2.37
2022-11-14T06:13:56.085Z,4.90
2022-11-14T06:17:01.382Z,3.23
2022-11-14T06:20:07.018Z,3.03
2022-11-14T06:23:14.669Z,1.63
2022-11-14T06:26:21.708Z,4.70
2022-11-14T06:29:31.332Z,3.77
2022-11-14T06:32:40.114Z,3.73
2022-11-14T06:35:46.480Z,2.10
2022-11-14T06:38:53.513Z,2.60
2022-11-14T06:41:59.331Z,2.43
2022-11-14T06:45:06.186Z,3.50
2022-11-14T06:48:11.672Z,2.63
2022-11-14T06:51:18.450Z,4.07
2022-11-14T06:54:24.169Z,0.77
2022-11-14T06:57:29.403Z,5.80
2022-11-14T07:00:35.328Z,2.63
2022-11-14T07:03:40.708Z,2.70
2022-11-14T07:06:47.413Z,5.67
2022-11-14T07:09:53.003Z,2.43
2022-11-14T07:12:58.756Z,3.93
2022-11-14T07:16:14.419Z,2.47
2022-11-14T07:19:20.807Z,2.40
2022-11-14T07:22:26.583Z,0.63
2022-11-14T07:25:32.556Z,3.33
2022-11-14T07:28:37.982Z,3.13
2022-11-14T07:31:43.679Z,1.43
2022-11-14T07:34:48.989Z,0.50
2022-11-14T07:37:54.875Z,2.67
2022-11-14T07:41:00.382Z,4.20
2022-11-14T07:44:06.220Z,1.53
2022-11-14T07:47:11.718Z,1.33
2022-11-14T07:50:20.385Z,0.87
2022-11-14T07:53:26.539Z,2.77
2022-11-14T07:56:32.140Z,3.30
2022-11-14T07:59:37.735Z,3.37
2022-11-14T08:02:43.424Z,2.00
2022-11-14T08:05:48.619Z,1.90
2022-11-14T08:08:54.042Z,0.73
2022-11-14T08:12:08.078Z,2.23
2022-11-14T08:15:13.291Z,0.90
2022-11-14T08:18:19.519Z,1.50
2022-11-14T08:21:25.528Z,1.40
2022-11-14T08:24:31.089Z,0.60
2022-11-14T08:27:36.399Z,2.93
2022-11-14T08:30:41.906Z,2.00
2022-11-14T08:33:47.402Z,1.17
2022-11-14T08:36:53.199Z,0.90
2022-11-14T08:39:58.478Z,0.70
2022-11-14T08:43:04.128Z,1.90
2022-11-14T08:45:49.679Z,1.27
2022-11-14T08:48:34.970Z,1.27
2022-11-14T08:51:20.418Z,0.93
2022-11-14T08:54:05.751Z,1.20
2022-11-14T08:57:11.142Z,0.80
2022-11-14T09:00:16.587Z,2.83
2022-11-14T09:03:27.031Z,2.27
2022-11-14T09:06:32.340Z,1.40
2022-11-14T09:09:37.812Z,0.97
2022-11-14T09:13:02.284Z,1.40
2022-11-14T09:16:07.975Z,1.00
2022-11-14T09:19:13.241Z,2.37
2022-11-14T09:22:18.635Z,1.57
2022-11-14T09:25:24.372Z,9.83
2022-11-14T09:28:30.062Z,6.63
2022-11-14T09:31:35.842Z,11.63
2022-11-14T09:34:41.288Z,6.33
2022-11-14T09:37:27.280Z,9.67
2022-11-14T09:40:33.520Z,12.63
2022-11-14T09:43:57.103Z,10.07
2022-11-14T09:47:10.683Z,8.87
2022-11-14T09:50:42.110Z,7.43
2022-11-14T09:53:59.995Z,9.67
2022-11-14T09:57:05.491Z,9.83
2022-11-14T09:59:51.183Z,6.57
2022-11-14T10:02:36.632Z,16.13
2022-11-14T10:06:11.038Z,19.10
2022-11-14T10:09:32.996Z,13.23
2022-11-14T10:12:45.111Z,14.60
2022-11-14T10:16:11.649Z,9.00
2022-11-14T10:19:41.456Z,13.47
2022-11-14T10:23:05.991Z,15.67
2022-11-14T10:26:20.291Z,16.67
2022-11-14T10:29:47.605Z,12.43
2022-11-14T10:33:02.543Z,12.33
2022-11-14T10:36:23.691Z,14.50
2022-11-14T10:39:39.202Z,15.40
2022-11-14T10:42:55.859Z,12.20
2022-11-14T10:46:07.895Z,15.40
2022-11-14T10:49:14.358Z,15.67
2022-11-14T10:52:23.583Z,18.03
2022-11-14T10:56:02.615Z,18.47
2022-11-14T10:59:04.374Z,9.13
2022-11-14T11:02:15.594Z,10.07
2022-11-14T11:05:34.692Z,12.73
2022-11-14T11:08:44.622Z,9.30
2022-11-14T11:11:50.247Z,10.83
2022-11-14T11:14:55.891Z,5.83
2022-11-14T11:18:24.963Z,10.20
2022-11-14T11:21:33.226Z,9.97
2022-11-14T11:24:59.009Z,7.57
2022-11-14T11:28:04.543Z,6.20
2022-11-14T11:31:18.621Z,5.97
2022-11-14T11:34:28.276Z,6.07
2022-11-14T11:37:41.654Z,6.83
2022-11-14T11:40:49.328Z,10.20
2022-11-14T11:44:16.901Z,10.43
2022-11-14T11:47:28.610Z,5.77
2022-11-14T11:50:37.121Z,9.03
2022-11-14T11:53:49.642Z,7.17
2022-11-14T11:56:57.532Z,9.40
2022-11-14T12:00:08.746Z,5.83
2022-11-14T12:03:20.278Z,8.73
2022-11-14T12:06:28.849Z,6.17
2022-11-14T12:13:31.564Z,5.70
2022-11-14T12:16:55.478Z,8.20
2022-11-14T12:20:34.831Z,7.77
2022-11-14T12:24:11.716Z,9.43
2022-11-14T12:27:41.395Z,9.40
2022-11-14T12:30:47.955Z,10.07
2022-11-14T12:33:58.932Z,8.00
2022-11-14T12:37:05.484Z,9.27
2022-11-14T12:40:36.124Z,6.10
2022-11-14T12:43:53.489Z,8.60
2022-11-14T12:47:26.798Z,8.47
2022-11-14T12:50:51.641Z,7.63
2022-11-14T12:53:59.234Z,8.97
2022-11-14T12:57:19.677Z,8.10
2022-11-14T13:00:29.028Z,5.90
2022-11-14T13:04:04.531Z,6.93
2022-11-14T13:07:18.625Z,5.00
2022-11-14T13:10:34.805Z,5.27
2022-11-14T13:13:42.213Z,6.43
2022-11-14T13:16:51.167Z,5.13
2022-11-14T13:20:04.581Z,4.97
2022-11-14T13:23:10.403Z,7.20
2022-11-14T13:26:30.743Z,6.00
2022-11-14T13:29:55.017Z,4.00
2022-11-14T13:33:03.184Z,7.23
2022-11-14T13:36:15.880Z,5.97
2022-11-14T13:39:51.378Z,3.50
2022-11-14T13:43:22.085Z,4.73
2022-11-14T13:46:29.995Z,4.63
2022-11-14T13:50:16.685Z,2.33
2022-11-14T13:53:31.267Z,2.27
2022-11-14T13:56:54.075Z,2.83
2022-11-14T14:00:18.465Z,1.53
2022-11-14T14:03:39.040Z,2.57
2022-11-14T14:06:50.233Z,5.03
2022-11-14T14:10:39.490Z,2.00
2022-11-14T14:14:16.655Z,2.87
2022-11-14T14:17:42.443Z,2.20
2022-11-14T14:21:07.896Z,2.20
2022-11-14T14:24:25.430Z,3.30
2022-11-14T14:27:42.607Z,3.60
2022-11-14T14:30:48.472Z,4.13
2022-11-14T14:34:07.931Z,1.87
2022-11-14T14:37:17.354Z,3.87
2022-11-14T14:40:26.127Z,2.43
2022-11-14T14:43:52.206Z,3.43
2022-11-14T14:46:57.587Z,2.53
2022-11-14T14:50:03.741Z,1.70
2022-11-14T14:53:19.981Z,3.77
2022-11-14T14:56:37.325Z,3.70
2022-11-14T14:59:45.238Z,3.43
2022-11-14T15:02:51.142Z,1.53
2022-11-14T15:05:56.483Z,2.77
2022-11-14T15:09:02.228Z,1.50
2022-11-14T15:12:10.665Z,3.07
2022-11-14T15:15:18.004Z,2.20
2022-11-14T15:18:27.285Z,2.27
2022-11-14T15:21:42.147Z,4.97
2022-11-14T15:24:47.469Z,4.50
2022-11-14T15:27:52.984Z,3.97
2022-11-14T15:30:58.435Z,3.47
2022-11-14T15:34:03.744Z,4.80
2022-11-14T15:37:30.984Z,3.40
2022-11-14T15:40:40.470Z,0.97
2022-11-14T15:44:04.004Z,2.20
2022-11-14T15:47:10.131Z,2.17
2022-11-14T15:50:38.483Z,1.10
2022-11-14T15:53:49.068Z,2.63
2022-11-14T15:56:54.873Z,2.90
2022-11-14T16:00:00.164Z,2.73
2022-11-14T16:03:09.888Z,1.90
2022-11-14T16:06:15.846Z,2.90
2022-11-14T16:09:20.784Z,1.07
2022-11-14T16:12:26.778Z,1.47
2022-11-14T16:15:32.439Z,2.93
2022-11-14T16:18:37.736Z,2.30
2022-11-14T16:21:43.330Z,5.13
2022-11-14T16:24:50.260Z,2.87
2022-11-14T16:27:56.176Z,1.63
2022-11-14T16:31:01.707Z,1.77
2022-11-14T16:34:07.579Z,2.77
2022-11-14T16:37:18.259Z,1.53
2022-11-14T16:40:24.116Z,1.43
2022-11-14T16:43:33.406Z,1.27
2022-11-14T16:46:39.032Z,0.90
2022-11-14T16:49:33.196Z,1.57
2022-11-14T16:52:19.930Z,0.87
2022-11-14T16:55:06.794Z,1.13
2022-11-14T16:57:52.142Z,1.17
2022-11-14T17:00:37.465Z,1.57
2022-11-14T17:03:23.265Z,2.73
2022-11-14T17:06:10.545Z,2.23
2022-11-14T17:08:57.535Z,1.00
2022-11-14T17:11:44.654Z,1.20
2022-11-14T17:14:30.284Z,2.20
2022-11-14T17:17:16.130Z,0.83
2022-11-14T17:20:01.716Z,0.50
2022-11-14T17:22:47.343Z,1.33
2022-11-14T17:25:32.828Z,2.27
2022-11-14T17:28:18.327Z,2.10
2022-11-14T17:31:08.321Z,1.23
2022-11-14T17:33:56.002Z,0.80
2022-11-14T17:36:41.747Z,0.97
2022-11-14T17:39:30.148Z,1.80
2022-11-14T17:42:15.994Z,2.73
2022-11-14T17:45:21.104Z,0.90
2022-11-14T17:48:27.253Z,2.80
2022-11-14T17:51:34.727Z,0.73
2022-11-14T17:54:40.245Z,1.43
2022-11-14T17:57:45.588Z,1.30
2022-11-14T18:00:51.319Z,2.93
2022-11-14T18:03:59.298Z,1.07
2022-11-14T18:07:07.264Z,2.37
2022-11-14T18:10:12.944Z,1.53
2022-11-14T18:13:18.403Z,2.10
2022-11-14T18:16:50.390Z,1.73
2022-11-14T18:19:55.559Z,3.07
2022-11-14T18:23:01.021Z,1.93
2022-11-14T18:26:06.660Z,1.47
2022-11-14T18:29:04.763Z,1.70
2022-11-14T18:32:09.898Z,1.57
2022-11-14T18:35:15.131Z,0.77
2022-11-14T18:38:20.930Z,1.33
2022-11-14T18:41:35.399Z,1.80
2022-11-14T18:44:40.958Z,2.10
2022-11-14T18:47:46.287Z,0.57
2022-11-14T18:50:51.943Z,1.07
2022-11-14T18:53:57.404Z,1.20
2022-11-14T18:57:02.845Z,0.60
2022-11-14T19:00:08.270Z,1.10
2022-11-14T19:03:13.435Z,2.87
2022-11-14T19:06:22.448Z,1.23
2022-11-14T19:09:30.429Z,1.87
2022-11-14T19:12:38.161Z,1.60
2022-11-14T19:15:43.819Z,0.63
2022-11-14T19:18:49.939Z,2.47
2022-11-14T19:21:55.875Z,0.63
2022-11-14T19:25:07.027Z,1.23
2022-11-14T19:28:12.725Z,2.43
2022-11-14T19:31:25.354Z,1.10
2022-11-14T19:34:30.798Z,0.93
2022-11-14T19:37:36.037Z,2.47
2022-11-14T19:40:41.794Z,1.63
2022-11-14T19:43:47.044Z,1.67
2022-11-14T19:46:53.015Z,1.00
2022-11-14T19:49:58.556Z,1.67
2022-11-14T19:52:43.935Z,1.03
2022-11-14T19:55:30.843Z,1.27
2022-11-14T19:58:16.721Z,1.13
2022-11-14T20:01:09.236Z,2.20
2022-11-14T20:03:57.458Z,1.47
2022-11-14T20:06:43.185Z,1.23
2022-11-14T20:09:28.843Z,1.80
2022-11-14T20:12:14.266Z,2.70
2022-11-14T20:14:59.582Z,1.80
2022-11-14T20:17:45.276Z,1.80
2022-11-14T20:20:30.648Z,1.70
2022-11-14T20:23:15.959Z,0.97
2022-11-14T20:26:01.338Z,1.90
2022-11-14T20:28:52.008Z,1.57
2022-11-14T20:31:38.102Z,1.30
2022-11-14T20:34:43.887Z,1.30
2022-11-14T20:37:49.118Z,2.03
2022-11-14T20:40:54.774Z,1.43
2022-11-14T20:44:00.614Z,0.80
2022-11-14T20:47:10.780Z,1.07
2022-11-14T20:49:56.891Z,0.60
2022-11-14T20:52:42.222Z,1.20
2022-11-14T20:55:27.409Z,1.33
2022-11-14T20:58:12.801Z,2.07
2022-11-14T21:00:58.123Z,0.67
2022-11-14T21:03:43.755Z,1.50
2022-11-14T21:06:29.262Z,2.67
2022-11-14T21:09:14.815Z,0.63
2022-11-14T21:12:00.096Z,1.17
2022-11-14T21:14:45.700Z,0.83
2022-11-14T21:17:31.738Z,1.73
2022-11-14T21:20:17.442Z,0.83
2022-11-14T21:23:02.814Z,0.80
2022-11-14T21:25:48.303Z,1.20
2022-11-14T21:28:35.425Z,1.30
2022-11-14T21:31:34.056Z,0.77
2022-11-14T21:34:19.763Z,0.20
2022-11-14T21:37:04.987Z,0.70
2022-11-14T21:39:50.607Z,0.87
2022-11-14T21:42:36.091Z,0.50
2022-11-14T21:45:21.378Z,0.57
2022-11-14T21:48:06.771Z,2.37
2022-11-14T21:50:52.430Z,0.40
2022-11-14T21:53:38.975Z,0.67
2022-11-14T21:56:32.348Z,0.37
2022-11-14T21:59:21.554Z,0.47
2022-11-14T22:02:29.163Z,0.53
2022-11-14T22:05:14.383Z,1.13
2022-11-14T22:08:00.032Z,1.40
2022-11-14T22:10:45.372Z,0.80
2022-11-14T22:13:31.747Z,0.97
2022-11-14T22:16:19.552Z,1.13
2022-11-14T22:19:05.874Z,0.50
2022-11-14T22:21:51.491Z,0.73
2022-11-14T22:24:36.951Z,0.73
2022-11-14T22:27:22.238Z,0.37
2022-11-14T22:30:28.132Z,0.50
2022-11-14T22:33:33.787Z,0.30
2022-11-14T22:36:44.196Z,0.40
2022-11-14T22:39:50.711Z,1.90
2022-11-14T22:42:56.208Z,0.67
2022-11-14T22:46:01.514Z,0.20
2022-11-14T22:49:09.000Z,0.30
2022-11-14T22:52:14.526Z,0.53
2022-11-14T22:55:20.018Z,0.77
2022-11-14T22:58:25.451Z,0.73
2022-11-14T23:01:31.322Z,1.07
2022-11-14T23:04:36.892Z,0.93
2022-11-14T23:07:42.435Z,0.30
2022-11-14T23:10:47.928Z,0.43
2022-11-14T23:14:09.556Z,1.30
2022-11-14T23:17:14.834Z,0.30
2022-11-14T23:20:20.060Z,0.20
2022-11-14T23:23:25.635Z,0.97
2022-11-14T23:26:33.959Z,0.57
2022-11-14T23:29:39.484Z,0.37
2022-11-14T23:32:47.290Z,0.97
2022-11-14T23:35:52.452Z,0.43
2022-11-14T23:38:58.183Z,0.30
2022-11-14T23:42:03.421Z,1.30
2022-11-14T23:45:09.158Z,0.20
2022-11-14T23:48:14.495Z,2.40
2022-11-14T23:51:20.033Z,0.17
2022-11-14T23:54:25.099Z,0.10
2022-11-14T23:57:30.649Z,1.90
